Time;durP1;ratioP1;P1;durP2;ratioP2;P2;SDS_P1;SDS_P2;PMS_P1;PMS_P2;Temp;Humidity;BMP_temperature;BMP_pressure;BME280_temperature;BME280_humidity;BME280_pressure;Samples;Min_cycle;Max_cycle;Signal;HPM_P1;HPM_P2
2022/07/16 00:02:38;;;;;;;2.00;1.90;;;23.90;46.00;25.10;101317.00;;;;5088016;28;20183;-41
2022/07/16 00:05:04;;;;;;;2.47;2.20;;;24.00;46.10;25.10;101316.00;;;;5088224;28;20235;-41
2022/07/16 00:07:30;;;;;;;3.20;2.00;;;23.90;46.00;25.10;101314.00;;;;5087640;28;20220;-42
2022/07/16 00:09:58;;;;;;;2.13;1.93;;;23.90;46.10;25.00;101309.00;;;;5087741;28;20187;-41
2022/07/16 00:12:25;;;;;;;3.33;2.20;;;23.90;46.20;25.00;101318.00;;;;5087537;28;20840;-42
2022/07/16 00:14:50;;;;;;;1.93;1.83;;;23.90;46.20;25.00;101314.00;;;;5087421;28;20170;-42
2022/07/16 00:17:16;;;;;;;2.93;2.20;;;23.80;46.20;25.00;101307.00;;;;5087097;28;20211;-42
2022/07/16 00:19:42;;;;;;;2.40;2.10;;;23.80;46.30;25.00;101316.00;;;;5087540;28;20204;-42
2022/07/16 00:22:08;;;;;;;2.83;2.13;;;23.80;46.40;24.90;101302.00;;;;5086573;28;20218;-41
2022/07/16 00:24:33;;;;;;;2.30;2.07;;;23.80;46.40;24.90;101307.00;;;;5087358;28;20184;-41
2022/07/16 00:26:59;;;;;;;3.87;2.10;;;23.80;46.50;24.90;101311.00;;;;5087428;28;20218;-42
2022/07/16 00:29:25;;;;;;;2.03;1.80;;;23.80;46.40;24.90;101315.00;;;;5087225;28;20224;-42
2022/07/16 00:31:50;;;;;;;2.20;2.00;;;23.70;46.40;24.90;101322.00;;;;5087317;28;20200;-41
2022/07/16 00:34:16;;;;;;;2.53;2.10;;;23.70;46.40;24.80;101316.00;;;;5087453;28;20172;-42
2022/07/16 00:36:42;;;;;;;2.43;2.17;;;23.70;46.40;24.80;101312.00;;;;5088578;28;20823;-43
2022/07/16 00:39:09;;;;;;;2.27;2.00;;;23.70;46.60;24.80;101315.00;;;;5088060;28;20859;-41
2022/07/16 00:41:37;;;;;;;2.40;1.83;;;23.60;46.50;24.80;101325.00;;;;5087356;28;20175;-42
2022/07/16 00:44:07;;;;;;;2.33;1.90;;;23.60;46.60;24.80;101317.00;;;;5098288;28;20168;-42
2022/07/16 00:46:34;;;;;;;2.70;2.07;;;23.60;46.60;24.70;101314.00;;;;5097838;28;20260;-41
2022/07/16 00:49:00;;;;;;;2.93;2.00;;;23.60;46.70;24.70;101304.00;;;;5086954;28;20191;-42
2022/07/16 00:51:27;;;;;;;2.70;2.13;;;23.60;46.70;24.70;101311.00;;;;5087083;28;20850;-42
2022/07/16 00:53:54;;;;;;;2.77;2.00;;;23.60;46.80;24.70;101312.00;;;;5086620;28;20169;-42
2022/07/16 00:56:19;;;;;;;2.10;1.90;;;23.60;47.50;24.70;101313.00;;;;5085697;28;20260;-41
2022/07/16 00:58:46;;;;;;;2.40;2.20;;;23.50;46.90;24.60;101314.00;;;;5086635;28;20272;-41
2022/07/16 01:01:12;;;;;;;2.10;1.90;;;23.50;47.00;24.60;101312.00;;;;5086798;28;20165;-41
2022/07/16 01:03:38;;;;;;;3.60;1.97;;;23.50;47.60;24.60;101311.00;;;;5086681;28;20330;-41
2022/07/16 01:06:06;;;;;;;3.20;2.00;;;23.50;47.10;24.60;101318.00;;;;5088864;28;20180;-41
2022/07/16 01:08:36;;;;;;;2.97;2.10;;;23.50;47.00;24.60;101313.00;;;;5086947;28;20196;-42
2022/07/16 01:11:04;;;;;;;3.33;2.50;;;23.40;47.10;24.50;101309.00;;;;5086985;28;20196;-42
2022/07/16 01:13:29;;;;;;;2.17;1.87;;;23.40;47.10;24.50;101318.00;;;;5085548;28;20165;-43
2022/07/16 01:15:55;;;;;;;2.70;1.97;;;23.40;47.10;24.50;101311.00;;;;5085325;28;20192;-42
2022/07/16 01:18:21;;;;;;;2.33;2.00;;;23.40;47.10;24.50;101312.00;;;;5086620;28;20586;-41
2022/07/16 01:20:47;;;;;;;2.20;1.80;;;23.40;47.10;24.40;101305.00;;;;5085458;28;20687;-41
2022/07/16 01:23:19;;;;;;;2.13;2.00;;;23.40;47.20;24.40;101290.00;;;;5087941;28;20165;-42
2022/07/16 01:25:45;;;;;;;2.37;2.00;;;23.30;47.30;24.40;101309.00;;;;5085455;28;20230;-42
2022/07/16 01:28:11;;;;;;;3.53;2.00;;;23.30;47.30;24.40;101313.00;;;;5086362;28;20545;-44
2022/07/16 01:30:37;;;;;;;2.20;2.00;;;23.30;47.30;24.40;101312.00;;;;5087052;28;20248;-42
2022/07/16 01:34:24;;;;;;;2.60;2.13;;;23.30;47.30;24.40;101316.00;;;;5089701;28;20186;-42
2022/07/16 01:36:34;;;;;;;2.10;1.90;;;23.30;47.40;24.30;101324.00;;;;5093347;28;20207;-42
2022/07/16 01:39:00;;;;;;;2.00;1.77;;;23.20;47.30;24.30;101318.00;;;;5093032;28;20216;-42
2022/07/16 01:41:26;;;;;;;2.13;1.90;;;23.20;47.40;24.30;101330.00;;;;5093154;28;20180;-42
2022/07/16 01:43:52;;;;;;;2.37;2.17;;;23.20;47.50;24.30;101325.00;;;;5093147;28;20183;-42
2022/07/16 01:46:17;;;;;;;2.10;1.90;;;23.20;47.50;24.20;101322.00;;;;5093178;28;20177;-42
2022/07/16 01:48:43;;;;;;;2.20;2.00;;;23.20;47.50;24.20;101324.00;;;;5092605;28;20208;-42
2022/07/16 01:51:09;;;;;;;2.20;1.80;;;23.20;47.50;24.20;101321.00;;;;5093194;28;20204;-42
2022/07/16 01:53:34;;;;;;;2.03;1.90;;;23.10;47.50;24.20;101318.00;;;;5092875;28;20169;-42
2022/07/16 01:56:00;;;;;;;2.20;1.97;;;23.10;47.50;24.20;101314.00;;;;5093202;28;20160;-43
2022/07/16 01:58:26;;;;;;;2.13;2.00;;;23.10;47.60;24.20;101313.00;;;;5093100;28;20905;-42
2022/07/16 02:00:52;;;;;;;2.80;2.13;;;23.00;47.80;24.10;101323.00;;;;5093137;28;20161;-42
2022/07/16 02:03:18;;;;;;;2.60;2.27;;;23.00;47.80;24.10;101316.00;;;;5091829;28;20169;-42
2022/07/16 02:05:44;;;;;;;2.10;1.90;;;23.10;47.80;24.10;101307.00;;;;5093225;28;20172;-42
2022/07/16 02:08:10;;;;;;;3.40;2.17;;;23.00;47.70;24.10;101318.00;;;;5093180;28;20534;-42
2022/07/16 02:10:35;;;;;;;2.63;2.10;;;23.00;47.80;24.00;101315.00;;;;5092959;28;20226;-42
2022/07/16 02:13:02;;;;;;;2.67;2.00;;;23.00;47.90;24.00;101301.00;;;;5093158;28;20168;-42
2022/07/16 02:15:28;;;;;;;2.80;2.00;;;23.00;47.90;23.80;101304.00;;;;5093134;28;20172;-42
2022/07/16 02:17:53;;;;;;;2.30;2.10;;;23.00;47.90;24.00;101311.00;;;;5095162;28;20180;-42
2022/07/16 02:20:19;;;;;;;2.30;2.10;;;23.00;48.00;24.00;101301.00;;;;5093127;28;20193;-42
2022/07/16 02:22:45;;;;;;;2.77;2.10;;;22.90;47.90;24.00;101300.00;;;;5092867;28;20165;-42
2022/07/16 02:25:11;;;;;;;2.40;2.10;;;22.90;47.90;24.00;101307.00;;;;5092686;28;20230;-42
2022/07/16 02:27:37;;;;;;;2.90;2.20;;;22.90;48.00;23.90;101306.00;;;;5092693;28;20582;-42
2022/07/16 02:30:04;;;;;;;2.53;2.13;;;22.90;48.10;23.90;101305.00;;;;5092959;28;20703;-42
2022/07/16 02:32:29;;;;;;;3.77;2.10;;;22.80;48.10;23.90;101306.00;;;;5092918;28;20208;-42
2022/07/16 02:34:55;;;;;;;2.37;2.17;;;22.90;48.20;23.90;101301.00;;;;5092919;28;20164;-42
2022/07/16 02:37:21;;;;;;;2.20;1.90;;;22.80;48.10;23.90;101305.00;;;;5092585;28;20596;-44
2022/07/16 02:39:47;;;;;;;4.40;2.37;;;22.80;48.10;23.80;101302.00;;;;5091575;28;20199;-42
2022/07/16 02:42:12;;;;;;;2.40;2.10;;;22.80;48.10;23.80;101299.00;;;;5092770;28;20172;-42
2022/07/16 02:44:38;;;;;;;2.77;2.10;;;22.70;48.20;23.80;101299.00;;;;5090022;28;20576;-42
2022/07/16 02:47:04;;;;;;;2.73;2.17;;;22.70;48.10;23.80;101303.00;;;;5089290;28;21592;-43
2022/07/16 02:49:29;;;;;;;2.57;2.20;;;22.70;48.10;23.80;101296.00;;;;5089022;28;20542;-42
2022/07/16 02:51:55;;;;;;;2.20;2.00;;;22.70;48.20;23.70;101301.00;;;;5089935;28;20224;-42
2022/07/16 02:54:21;;;;;;;3.67;2.30;;;22.70;48.20;23.70;101301.00;;;;5097333;28;20161;-42
2022/07/16 02:56:46;;;;;;;3.20;2.10;;;22.70;48.20;23.70;101305.00;;;;5097880;28;20184;-42
2022/07/16 02:59:12;;;;;;;3.83;2.20;;;22.70;48.10;23.70;101304.00;;;;5092102;28;20177;-42
2022/07/16 03:01:38;;;;;;;2.77;2.10;;;22.70;48.20;23.70;101303.00;;;;5089268;28;20526;-43
2022/07/16 03:04:04;;;;;;;2.57;2.13;;;22.70;48.20;23.70;101308.00;;;;5089692;28;20645;-42
2022/07/16 03:06:30;;;;;;;2.83;2.10;;;22.70;48.10;23.60;101311.00;;;;5088926;28;20275;-42
2022/07/16 03:08:55;;;;;;;2.30;2.00;;;22.60;48.10;23.60;101306.00;;;;5088843;28;20196;-42
2022/07/16 03:11:21;;;;;;;2.93;2.00;;;22.60;48.10;23.60;101306.00;;;;5088950;28;20236;-42
2022/07/16 03:13:47;;;;;;;2.40;2.20;;;22.60;48.30;23.60;101308.00;;;;5089261;28;20177;-42
2022/07/16 03:16:13;;;;;;;4.00;2.20;;;22.60;48.20;23.60;101311.00;;;;5088603;28;20657;-42
2022/07/16 03:18:38;;;;;;;3.20;2.00;;;22.60;48.30;23.60;101322.00;;;;5088827;28;20192;-42
2022/07/16 03:21:04;;;;;;;2.27;1.90;;;22.50;48.30;23.50;101315.00;;;;5088689;28;20173;-42
2022/07/16 03:23:30;;;;;;;3.27;2.10;;;22.50;48.40;23.50;101333.00;;;;5090573;28;20173;-42
2022/07/16 03:25:55;;;;;;;4.40;2.03;;;22.50;48.50;23.50;101325.00;;;;5102171;28;20208;-46
2022/07/16 03:28:21;;;;;;;3.43;2.07;;;22.50;48.50;23.50;101326.00;;;;5097685;28;20192;-42
2022/07/16 03:30:47;;;;;;;5.00;2.20;;;22.50;48.90;23.50;101329.00;;;;5088489;28;20169;-42
2022/07/16 03:33:13;;;;;;;3.33;2.00;;;22.50;48.80;23.50;101317.00;;;;5088614;28;20169;-41
2022/07/16 03:35:38;;;;;;;3.10;2.17;;;22.50;48.70;23.50;101324.00;;;;5088400;28;20169;-42
2022/07/16 03:40:48;;;;;;;3.70;2.27;;;22.50;48.80;23.40;101333.00;;;;5088271;28;20179;-42
2022/07/16 03:43:14;;;;;;;2.83;2.27;;;22.40;48.50;23.40;101335.00;;;;5088226;28;20264;-42
2022/07/16 03:45:40;;;;;;;5.57;4.97;;;22.40;48.40;23.40;101331.00;;;;5088551;28;20184;-42
2022/07/16 03:48:06;;;;;;;4.03;3.63;;;22.40;48.50;23.40;101331.00;;;;5088089;28;20319;-43
2022/07/16 03:50:32;;;;;;;3.07;2.77;;;22.40;48.40;23.40;101325.00;;;;5088008;28;20251;-43
2022/07/16 03:52:57;;;;;;;3.97;3.00;;;22.40;48.30;23.40;101332.00;;;;5086566;28;20222;-42
2022/07/16 03:55:23;;;;;;;3.70;2.60;;;22.40;48.20;23.40;101322.00;;;;5087774;28;20164;-42
2022/07/16 03:57:49;;;;;;;4.00;3.00;;;22.40;48.20;23.30;101325.00;;;;5086775;28;20185;-42
2022/07/16 04:00:15;;;;;;;3.10;2.67;;;22.40;48.30;23.30;101326.00;;;;5087671;28;20184;-42
2022/07/16 04:02:40;;;;;;;3.23;2.77;;;22.40;48.30;23.30;101313.00;;;;5087793;28;20260;-42
2022/07/16 04:05:06;;;;;;;3.00;2.70;;;22.40;48.30;23.30;101325.00;;;;5087808;28;20698;-42
2022/07/16 04:07:32;;;;;;;3.00;2.70;;;22.40;48.30;23.30;101314.00;;;;5087948;28;20185;-42
2022/07/16 04:09:58;;;;;;;3.33;2.67;;;22.30;48.90;23.30;101320.00;;;;5088354;28;20172;-42
2022/07/16 04:12:24;;;;;;;2.77;2.43;;;22.40;48.50;23.30;101329.00;;;;5087667;28;20419;-42
2022/07/16 04:14:52;;;;;;;3.70;2.47;;;22.30;48.50;23.30;101322.00;;;;5078623;28;20185;-43
2022/07/16 04:17:19;;;;;;;3.80;2.40;;;22.40;48.80;23.30;101330.00;;;;5071012;28;20197;-41
2022/07/16 04:19:44;;;;;;;2.70;2.50;;;22.30;48.90;23.30;101334.00;;;;5067208;28;20185;-43
2022/07/16 04:22:10;;;;;;;2.60;2.40;;;22.30;48.90;23.30;101341.00;;;;5067210;28;20761;-42
2022/07/16 04:24:36;;;;;;;2.60;2.40;;;22.30;49.00;23.30;101343.00;;;;5066580;28;20288;-42
2022/07/16 04:27:02;;;;;;;2.70;2.10;;;22.30;49.20;23.20;101341.00;;;;5066689;28;20158;-42
2022/07/16 04:29:27;;;;;;;3.27;2.40;;;22.30;49.20;23.20;101349.00;;;;5066440;28;20170;-42
2022/07/16 04:31:53;;;;;;;2.47;2.20;;;22.30;49.40;23.20;101351.00;;;;5066397;28;20204;-42
2022/07/16 04:34:19;;;;;;;3.33;2.33;;;22.20;49.50;23.20;101350.00;;;;5066852;28;20173;-42
2022/07/16 04:36:45;;;;;;;2.63;2.20;;;22.20;49.50;23.20;101338.00;;;;5066728;28;20195;-42
2022/07/16 04:39:11;;;;;;;2.50;2.30;;;22.20;49.40;23.20;101347.00;;;;5070410;28;20188;-41
2022/07/16 04:41:36;;;;;;;4.33;2.40;;;22.20;49.40;23.20;101359.00;;;;5070082;28;20650;-42
2022/07/16 04:44:02;;;;;;;2.90;2.57;;;22.20;49.40;23.20;101344.00;;;;5071514;28;20176;-41
2022/07/16 04:46:28;;;;;;;2.50;2.30;;;22.20;49.60;23.20;101291.00;;;;5069360;28;20573;-41
2022/07/16 04:48:54;;;;;;;2.40;2.20;;;22.20;49.50;23.10;101340.00;;;;5066080;28;20196;-42
2022/07/16 04:51:19;;;;;;;3.30;2.40;;;22.20;49.60;22.90;101339.00;;;;5066617;28;20197;-42
2022/07/16 04:53:45;;;;;;;3.03;2.30;;;22.20;49.80;23.10;101347.00;;;;5066638;28;20170;-42
2022/07/16 04:56:11;;;;;;;3.00;2.40;;;22.20;49.60;23.10;101346.00;;;;5067063;28;20169;-42
2022/07/16 04:58:36;;;;;;;3.03;2.30;;;22.20;49.70;23.10;101343.00;;;;5066210;28;20199;-42
2022/07/16 05:01:02;;;;;;;3.27;2.50;;;22.10;49.70;23.10;101340.00;;;;5066098;28;20217;-41
2022/07/16 05:03:28;;;;;;;4.83;2.73;;;22.10;49.60;23.10;101341.00;;;;5066647;28;20174;-42
2022/07/16 05:05:54;;;;;;;4.60;2.50;;;22.10;49.70;23.10;101338.00;;;;5066085;28;20180;-42
2022/07/16 05:08:19;;;;;;;5.30;2.97;;;22.10;49.70;23.00;101337.00;;;;5065470;28;20653;-43
2022/07/16 05:10:45;;;;;;;3.57;2.57;;;22.10;49.90;23.00;101343.00;;;;5065893;28;20177;-42
2022/07/16 05:13:11;;;;;;;3.67;2.50;;;22.10;49.70;23.00;101346.00;;;;5065770;28;20181;-42
2022/07/16 05:15:37;;;;;;;10.60;2.80;;;22.10;50.00;23.00;101332.00;;;;5064810;28;20181;-42
2022/07/16 05:18:03;;;;;;;5.53;2.40;;;22.10;50.00;23.00;101347.00;;;;5066028;28;20193;-42
2022/07/16 05:20:29;;;;;;;4.47;2.77;;;22.10;50.00;23.00;101339.00;;;;5065831;28;20174;-42
2022/07/16 05:22:55;;;;;;;2.50;2.30;;;22.10;50.10;23.00;101340.00;;;;5066138;28;20185;-42
2022/07/16 05:25:21;;;;;;;4.93;2.77;;;22.00;49.80;23.00;101347.00;;;;5065758;28;20331;-42
2022/07/16 05:27:47;;;;;;;2.90;2.60;;;22.10;50.00;23.00;101351.00;;;;5066119;28;20271;-41
2022/07/16 05:30:13;;;;;;;5.60;2.70;;;22.00;50.50;23.00;101345.00;;;;5066497;28;20542;-42
2022/07/16 05:32:39;;;;;;;3.90;2.70;;;22.00;50.50;23.00;101347.00;;;;5070795;28;20380;-43
2022/07/16 05:35:05;;;;;;;3.27;2.70;;;22.00;50.20;23.00;101343.00;;;;5076183;28;20634;-42
2022/07/16 05:37:31;;;;;;;2.87;2.43;;;22.00;50.40;22.90;101344.00;;;;5072740;28;20204;-41
2022/07/16 05:39:57;;;;;;;3.60;2.20;;;22.00;50.10;22.90;101350.00;;;;5069691;28;20169;-46
2022/07/16 05:42:22;;;;;;;3.63;2.60;;;22.00;50.10;22.90;101352.00;;;;5065997;28;20185;-41
2022/07/16 05:44:48;;;;;;;4.20;2.60;;;22.00;50.20;22.90;101348.00;;;;5065585;28;20177;-42
2022/07/16 05:47:14;;;;;;;4.03;2.67;;;22.00;50.40;22.90;101342.00;;;;5065725;28;20193;-42
2022/07/16 05:49:40;;;;;;;3.77;2.70;;;21.90;50.10;22.90;101346.00;;;;5065459;28;20177;-41
2022/07/16 05:52:05;;;;;;;4.83;2.70;;;22.00;50.80;22.90;101338.00;;;;5066205;28;20211;-43
2022/07/16 05:54:31;;;;;;;3.50;3.10;;;21.90;50.50;22.90;101349.00;;;;5072764;28;20177;-42
2022/07/16 05:56:57;;;;;;;3.07;2.60;;;21.90;50.90;22.90;101348.00;;;;5073214;28;20174;-41
2022/07/16 05:59:23;;;;;;;2.97;2.67;;;21.90;50.80;22.90;101360.00;;;;5068389;28;20177;-42
2022/07/16 06:01:48;;;;;;;4.47;3.03;;;21.90;50.80;22.90;101352.00;;;;5065328;28;20398;-42
2022/07/16 06:04:14;;;;;;;2.93;2.60;;;21.90;51.00;22.90;101363.00;;;;5067087;28;20186;-42
2022/07/16 06:06:40;;;;;;;3.83;2.57;;;21.90;50.60;22.80;101365.00;;;;5065594;28;20169;-42
2022/07/16 06:09:06;;;;;;;3.93;2.70;;;21.90;50.50;22.80;101371.00;;;;5065348;28;20193;-42
2022/07/16 06:11:31;;;;;;;4.73;3.20;;;21.90;50.40;22.80;101376.00;;;;5063461;28;20208;-42
2022/07/16 06:13:57;;;;;;;3.63;2.70;;;21.90;51.20;22.80;101376.00;;;;5065131;28;20424;-42
2022/07/16 06:16:23;;;;;;;3.80;2.63;;;21.80;50.60;22.80;101382.00;;;;5065176;28;20660;-43
2022/07/16 06:18:49;;;;;;;3.10;2.80;;;21.80;50.80;22.80;101378.00;;;;5065282;28;20229;-42
2022/07/16 06:21:15;;;;;;;3.53;2.50;;;21.90;50.80;22.80;101398.00;;;;5068288;28;20177;-42
2022/07/16 06:23:41;;;;;;;3.13;2.53;;;21.90;50.70;22.80;101379.00;;;;5068847;28;20183;-42
2022/07/16 06:26:06;;;;;;;5.23;2.60;;;21.90;50.60;22.80;101383.00;;;;5078442;28;20655;-43
2022/07/16 06:28:32;;;;;;;4.43;2.87;;;21.90;50.80;22.70;101387.00;;;;5071074;28;20670;-43
2022/07/16 06:30:58;;;;;;;3.47;2.60;;;21.90;50.70;22.70;101382.00;;;;5069830;28;20239;-43
2022/07/16 06:33:23;;;;;;;5.60;2.73;;;21.90;50.80;22.70;101391.00;;;;5071749;28;20191;-42
2022/07/16 06:35:49;;;;;;;5.60;2.90;;;21.90;50.90;22.70;101388.00;;;;5071194;28;20575;-42
2022/07/16 06:38:15;;;;;;;4.00;2.83;;;21.90;50.80;22.70;101399.00;;;;5070777;28;20704;-42
2022/07/16 06:40:43;;;;;;;5.00;2.90;;;22.00;51.10;22.70;101408.00;;;;5070667;28;20173;-43
2022/07/16 06:43:09;;;;;;;3.50;2.80;;;21.90;51.10;22.70;101405.00;;;;5071013;28;20211;-43
2022/07/16 06:45:35;;;;;;;4.90;3.00;;;21.90;51.10;22.70;101398.00;;;;5071804;28;20279;-42
2022/07/16 06:48:00;;;;;;;4.73;2.93;;;21.90;51.20;22.70;101406.00;;;;5070741;28;20276;-42
2022/07/16 06:50:26;;;;;;;3.47;2.60;;;21.90;51.10;22.60;101396.00;;;;5070757;28;20174;-42
2022/07/16 06:52:52;;;;;;;3.13;2.60;;;21.90;51.10;22.70;101397.00;;;;5070190;28;20198;-42
2022/07/16 06:55:18;;;;;;;3.60;2.60;;;21.90;51.20;22.60;101394.00;;;;5070112;28;20431;-42
2022/07/16 06:57:44;;;;;;;4.07;2.60;;;21.90;51.10;22.70;101394.00;;;;4965200;28;22059;-42
2022/07/16 07:00:10;;;;;;;4.00;2.97;;;21.90;51.10;22.60;101407.00;;;;5081781;28;20546;-42
2022/07/16 07:02:36;;;;;;;3.50;2.63;;;21.90;51.20;22.60;101400.00;;;;5091041;28;20264;-42
2022/07/16 07:05:02;;;;;;;3.90;2.83;;;21.90;51.20;22.60;101415.00;;;;5091412;28;20287;-42
2022/07/16 07:07:27;;;;;;;3.07;2.77;;;21.90;51.20;22.60;101412.00;;;;5090546;28;20269;-42
2022/07/16 07:09:53;;;;;;;3.60;2.70;;;21.90;51.20;22.60;101417.00;;;;5091261;28;20169;-42
2022/07/16 07:12:19;;;;;;;4.30;2.73;;;21.90;51.20;22.60;101414.00;;;;5090408;28;20207;-42
2022/07/16 07:14:45;;;;;;;4.70;2.70;;;21.90;51.30;22.60;101415.00;;;;5090814;28;20169;-42
2022/07/16 07:17:10;;;;;;;4.13;3.03;;;21.90;51.20;22.60;101417.00;;;;5090631;28;20222;-42
2022/07/16 07:19:36;;;;;;;3.70;2.70;;;21.80;51.70;22.60;101415.00;;;;5091306;28;20169;-42
2022/07/16 07:22:02;;;;;;;3.20;2.60;;;21.90;51.50;22.60;101417.00;;;;5090633;28;20547;-41
2022/07/16 07:24:28;;;;;;;3.30;2.80;;;21.80;51.30;22.60;101417.00;;;;5090778;28;20665;-41
2022/07/16 07:26:53;;;;;;;3.87;2.60;;;21.80;51.40;22.60;101419.00;;;;5090803;28;20421;-42
2022/07/16 07:29:19;;;;;;;3.67;2.77;;;21.80;51.50;22.60;101417.00;;;;5090661;28;20192;-42
2022/07/16 07:31:45;;;;;;;3.13;2.50;;;21.80;51.30;22.60;101420.00;;;;5090241;28;20200;-42
2022/07/16 07:34:11;;;;;;;3.53;3.13;;;21.80;51.40;22.60;101416.00;;;;5090802;28;20247;-42
2022/07/16 07:36:36;;;;;;;3.83;3.43;;;21.80;51.80;22.60;101416.00;;;;5090961;28;20274;-44
2022/07/16 07:39:02;;;;;;;4.27;3.00;;;21.80;52.00;22.60;101420.00;;;;5090149;28;20223;-44
2022/07/16 07:41:28;;;;;;;4.73;2.80;;;21.80;52.00;22.60;101427.00;;;;5090244;28;20196;-44
2022/07/16 07:43:54;;;;;;;8.27;3.10;;;21.80;51.70;22.60;101413.00;;;;5109219;28;20446;-43
2022/07/16 07:46:20;;;;;;;6.33;2.93;;;21.80;51.60;22.60;101417.00;;;;5103654;28;20183;-44
2022/07/16 07:48:46;;;;;;;5.73;3.03;;;21.90;52.10;22.60;101427.00;;;;5098863;28;20336;-44
2022/07/16 07:51:12;;;;;;;5.37;3.00;;;21.90;52.40;22.60;101428.00;;;;5090501;28;20249;-43
2022/07/16 07:53:38;;;;;;;9.40;3.30;;;21.90;52.80;22.50;101430.00;;;;5090808;28;20177;-44
2022/07/16 07:56:04;;;;;;;9.33;3.13;;;21.90;52.50;22.70;101431.00;;;;5090523;28;20283;-43
2022/07/16 07:58:29;;;;;;;6.23;2.90;;;21.90;53.20;22.70;101425.00;;;;4964023;28;20189;-44
2022/07/16 08:00:55;;;;;;;4.70;2.90;;;21.90;52.90;22.70;101422.00;;;;5090234;28;20214;-43
2022/07/16 08:03:21;;;;;;;6.70;3.27;;;22.00;52.80;22.70;101423.00;;;;5090287;28;20622;-44
2022/07/16 08:05:47;;;;;;;6.87;2.97;;;22.00;52.90;22.80;101430.00;;;;5090228;28;20222;-43
2022/07/16 08:08:13;;;;;;;16.47;3.63;;;22.00;53.00;22.80;101416.00;;;;5089921;28;20192;-43
2022/07/16 08:10:39;;;;;;;9.50;3.47;;;22.00;53.70;22.80;101423.00;;;;5098066;28;20598;-45
2022/07/16 08:13:05;;;;;;;9.43;3.20;;;22.00;54.10;22.80;101434.00;;;;5105335;28;20199;-44
2022/07/16 08:15:31;;;;;;;4.77;3.10;;;22.00;53.60;22.80;101431.00;;;;5099774;28;20311;-44
2022/07/16 08:17:56;;;;;;;6.47;3.73;;;22.10;53.60;22.90;101422.00;;;;5092750;28;20197;-44
2022/07/16 08:20:23;;;;;;;6.23;3.70;;;22.10;53.30;22.90;101431.00;;;;5090620;28;20165;-44
2022/07/16 08:22:48;;;;;;;6.50;3.80;;;22.10;53.30;22.90;101427.00;;;;5090419;28;20196;-45
2022/07/16 08:27:59;;;;;;;5.43;3.60;;;22.10;53.50;22.90;101436.00;;;;5090346;28;20495;-44
2022/07/16 08:30:24;;;;;;;4.40;3.03;;;22.10;53.30;23.00;101432.00;;;;5089994;28;20180;-44
2022/07/16 08:32:50;;;;;;;7.80;3.60;;;22.10;53.40;23.00;101439.00;;;;5089660;28;20204;-44
2022/07/16 08:35:16;;;;;;;4.47;3.50;;;22.10;53.30;23.00;101434.00;;;;5089891;28;20198;-43
2022/07/16 08:37:43;;;;;;;4.47;3.37;;;22.10;53.30;23.00;101435.00;;;;5089713;28;20879;-44
2022/07/16 08:40:12;;;;;;;5.50;3.47;;;22.10;53.50;23.00;101439.00;;;;5090053;28;20257;-44
2022/07/16 08:42:38;;;;;;;6.90;3.23;;;22.10;53.30;23.00;101448.00;;;;5088890;28;20296;-44
2022/07/16 08:45:06;;;;;;;3.97;3.10;;;22.10;53.30;23.00;101443.00;;;;5090176;28;20257;-45
2022/07/16 08:47:32;;;;;;;4.23;3.10;;;22.10;53.50;23.10;101443.00;;;;5089591;28;20486;-43
2022/07/16 08:50:00;;;;;;;5.23;3.43;;;22.10;53.80;23.10;101449.00;;;;5088526;28;20622;-44
2022/07/16 08:52:27;;;;;;;5.07;3.40;;;22.10;53.90;23.10;101451.00;;;;5089090;28;20681;-44
2022/07/16 08:54:54;;;;;;;3.10;2.80;;;22.10;53.90;23.10;101461.00;;;;5090498;28;20176;-44
2022/07/16 08:57:20;;;;;;;4.63;3.00;;;22.10;53.80;23.10;101454.00;;;;5097916;28;20561;-44
2022/07/16 08:59:46;;;;;;;4.37;3.00;;;22.10;54.10;23.10;101455.00;;;;5092780;28;20209;-44
2022/07/16 09:02:13;;;;;;;4.47;3.13;;;22.10;54.70;23.10;101465.00;;;;5090442;28;20180;-44
2022/07/16 09:04:39;;;;;;;5.60;3.17;;;22.10;54.10;23.10;101476.00;;;;5090394;28;20185;-45
2022/07/16 09:07:05;;;;;;;3.70;2.90;;;22.10;53.90;23.10;101476.00;;;;5089066;28;20699;-45
2022/07/16 09:09:31;;;;;;;3.50;2.97;;;22.10;53.40;23.10;101485.00;;;;5089230;28;20181;-44
2022/07/16 09:11:57;;;;;;;4.67;2.93;;;22.10;53.60;23.10;101481.00;;;;5089253;28;20229;-44
2022/07/16 09:14:22;;;;;;;2.80;2.60;;;22.10;54.00;23.10;101479.00;;;;5089127;28;20161;-44
2022/07/16 09:16:51;;;;;;;2.90;2.60;;;22.10;54.00;23.10;101478.00;;;;5090325;28;20172;-44
2022/07/16 09:19:19;;;;;;;3.27;2.70;;;22.10;54.10;23.10;101486.00;;;;5089258;28;20173;-44
2022/07/16 09:22:10;;;;;;;2.83;2.57;;;22.10;54.00;23.20;101488.00;;;;5088799;28;20769;-44
2022/07/16 09:24:52;;;;;;;2.93;2.63;;;22.10;53.90;23.20;101494.00;;;;5089059;28;20177;-44
2022/07/16 09:27:20;;;;;;;2.87;2.50;;;22.10;54.10;23.20;101497.00;;;;5088488;28;20205;-44
2022/07/16 09:29:54;;;;;;;4.70;2.50;;;22.10;54.10;23.20;101500.00;;;;5089235;28;20248;-44
2022/07/16 09:32:40;;;;;;;4.13;2.50;;;22.10;54.00;23.20;101499.00;;;;5089198;28;20223;-44
2022/07/16 09:35:11;;;;;;;5.13;2.53;;;22.10;54.00;23.20;101501.00;;;;5089064;28;20221;-43
2022/07/16 09:37:54;;;;;;;2.63;2.40;;;22.20;54.00;23.20;101501.00;;;;5088749;28;20189;-44
2022/07/16 09:40:42;;;;;;;2.93;2.37;;;22.10;53.90;23.20;101510.00;;;;5088881;28;20169;-44
2022/07/16 09:43:14;;;;;;;2.70;2.50;;;22.20;53.90;23.20;101511.00;;;;5092608;28;20232;-44
2022/07/16 09:45:59;;;;;;;2.60;2.40;;;22.20;53.90;23.20;101509.00;;;;5109214;28;20276;-44
2022/07/16 09:48:29;;;;;;;2.63;2.40;;;22.20;53.90;23.20;101507.00;;;;5089536;28;20231;-44
2022/07/16 09:50:57;;;;;;;2.40;2.20;;;22.20;53.90;23.20;101495.00;;;;5093873;28;20184;-44
2022/07/16 09:53:25;;;;;;;2.80;2.20;;;22.20;53.90;23.20;101491.00;;;;5092162;28;20191;-44
2022/07/16 09:56:05;;;;;;;3.17;2.30;;;22.20;53.90;23.20;101506.00;;;;5098428;28;20173;-44
2022/07/16 09:58:31;;;;;;;2.53;2.30;;;22.20;53.80;23.20;101499.00;;;;5093183;28;20220;-43
2022/07/16 10:00:57;;;;;;;2.83;2.30;;;22.20;53.80;23.20;101509.00;;;;5091615;28;20262;-43
2022/07/16 10:03:23;;;;;;;3.00;2.33;;;22.20;53.80;23.30;101506.00;;;;5092947;28;20255;-44
2022/07/16 10:05:49;;;;;;;2.30;2.10;;;22.20;53.60;23.30;101516.00;;;;5093125;28;20177;-43
2022/07/16 10:08:15;;;;;;;2.40;2.20;;;22.20;53.60;23.30;101514.00;;;;5092496;28;20185;-43
2022/07/16 10:10:41;;;;;;;2.30;2.10;;;22.30;53.70;23.30;101510.00;;;;5092934;28;20172;-43
2022/07/16 10:13:08;;;;;;;2.40;2.20;;;22.30;53.70;23.30;101519.00;;;;5092396;28;20269;-44
2022/07/16 10:15:34;;;;;;;2.33;2.00;;;22.30;53.70;23.30;101519.00;;;;5074264;28;20169;-44
2022/07/16 10:18:00;;;;;;;2.40;2.10;;;22.30;53.60;23.30;101514.00;;;;5091219;28;20200;-44
2022/07/16 10:20:26;;;;;;;2.13;2.03;;;22.30;53.80;23.30;101519.00;;;;5092834;28;20531;-44
2022/07/16 10:22:51;;;;;;;2.37;2.17;;;22.30;53.70;23.40;101518.00;;;;5093391;28;20634;-43
2022/07/16 10:25:23;;;;;;;2.17;1.97;;;22.30;53.60;23.40;101513.00;;;;5092275;28;20192;-44
2022/07/16 10:27:49;;;;;;;2.27;2.07;;;22.40;53.60;23.40;101530.00;;;;5091917;28;20224;-45
2022/07/16 10:30:25;;;;;;;2.10;2.00;;;22.30;53.60;23.40;101517.00;;;;5092747;28;20525;-44
2022/07/16 10:33:02;;;;;;;2.30;2.10;;;22.40;53.60;23.40;101522.00;;;;5092427;28;20196;-44
2022/07/16 10:35:50;;;;;;;2.10;1.90;;;22.40;53.70;23.40;101534.00;;;;5092435;28;20180;-44
2022/07/16 10:38:27;;;;;;;2.30;2.10;;;22.40;53.50;23.40;101530.00;;;;5092495;28;20197;-44
2022/07/16 10:41:13;;;;;;;2.33;2.13;;;22.40;53.40;23.40;101533.00;;;;5091222;28;20193;-44
2022/07/16 10:43:39;;;;;;;2.17;1.87;;;22.40;53.60;23.40;101532.00;;;;5092178;28;20199;-44
2022/07/16 10:46:10;;;;;;;2.70;2.20;;;22.40;53.50;23.40;101530.00;;;;5092044;28;20263;-44
2022/07/16 10:48:38;;;;;;;2.30;2.10;;;22.40;53.60;23.40;101530.00;;;;5089814;28;20193;-43
2022/07/16 10:51:19;;;;;;;2.33;2.10;;;22.40;53.50;23.50;101527.00;;;;5091902;28;20570;-44
2022/07/16 10:53:57;;;;;;;3.90;2.03;;;22.50;53.70;23.50;101529.00;;;;5092372;28;20742;-43